createdAt,value
2023-03-14T00:00:53.868Z,7.60
2023-03-14T00:03:20.973Z,4.78
2023-03-14T00:05:48.015Z,4.60
2023-03-14T00:08:14.964Z,5.63
2023-03-14T00:10:42.078Z,4.32
2023-03-14T00:13:09.142Z,4.35
2023-03-14T00:15:37.566Z,5.07
2023-03-14T00:18:04.696Z,8.00
2023-03-14T00:20:31.773Z,7.80
2023-03-14T00:22:58.666Z,5.57
2023-03-14T00:25:25.591Z,7.53
2023-03-14T00:27:54.984Z,7.65
2023-03-14T00:30:22.059Z,6.60
2023-03-14T00:32:50.422Z,8.18
2023-03-14T00:35:17.799Z,6.47
2023-03-14T00:37:44.622Z,7.28
2023-03-14T00:40:12.370Z,9.30
2023-03-14T00:45:30.189Z,6.45
2023-03-14T00:47:58.347Z,5.45
2023-03-14T00:50:25.701Z,6.50
2023-03-14T00:52:52.684Z,6.60
2023-03-14T00:55:19.539Z,7.10
2023-03-14T00:57:46.448Z,4.40
2023-03-14T01:00:15.603Z,4.78
2023-03-14T01:02:43.041Z,5.43
2023-03-14T01:05:11.491Z,6.80
2023-03-14T01:07:38.570Z,6.75
2023-03-14T01:10:08.450Z,5.28
2023-03-14T01:12:35.605Z,5.43
2023-03-14T01:15:04.016Z,7.57
2023-03-14T01:17:33.081Z,6.57
2023-03-14T01:20:01.509Z,6.68
2023-03-14T01:22:30.444Z,6.55
2023-03-14T01:24:57.505Z,9.55
2023-03-14T01:27:25.167Z,6.20
2023-03-14T01:29:53.057Z,8.48
2023-03-14T01:32:20.033Z,4.20
2023-03-14T01:34:46.899Z,9.30
2023-03-14T01:37:14.299Z,6.32
2023-03-14T01:39:43.212Z,7.32
2023-03-14T01:42:10.652Z,5.45
2023-03-14T01:44:52.566Z,9.73
2023-03-14T01:47:20.736Z,8.25
2023-03-14T01:49:51.347Z,7.38
2023-03-14T01:52:25.886Z,6.93
2023-03-14T01:54:58.190Z,9.30
2023-03-14T01:57:30.732Z,6.38
2023-03-14T02:02:29.902Z,5.97
2023-03-14T02:04:59.054Z,8.18
2023-03-14T02:07:40.637Z,9.02
2023-03-14T02:12:44.569Z,6.97
2023-03-14T02:15:30.479Z,4.55
2023-03-14T02:18:07.538Z,5.80
2023-03-14T02:20:52.815Z,9.70
2023-03-14T02:23:35.049Z,6.38
2023-03-14T02:26:15.516Z,5.43
2023-03-14T02:28:44.272Z,7.88
2023-03-14T02:31:12.176Z,6.82
2023-03-14T02:33:39.777Z,4.32
2023-03-14T02:36:13.113Z,7.88
2023-03-14T02:38:48.601Z,6.85
2023-03-14T02:41:16.023Z,7.10
2023-03-14T02:43:50.721Z,8.68
2023-03-14T02:46:21.226Z,8.98
2023-03-14T02:48:52.953Z,7.47
2023-03-14T02:51:21.847Z,10.50
2023-03-14T02:53:49.421Z,7.75
2023-03-14T02:56:17.647Z,6.28
2023-03-14T02:58:44.998Z,5.88
2023-03-14T03:01:38.009Z,4.67
2023-03-14T03:04:06.236Z,7.43
2023-03-14T03:06:33.365Z,5.55
2023-03-14T03:09:03.418Z,5.43
2023-03-14T03:11:31.120Z,7.18
2023-03-14T03:13:58.072Z,7.00
2023-03-14T03:16:27.409Z,6.38
2023-03-14T03:18:55.836Z,5.82
2023-03-14T03:21:23.022Z,6.03
2023-03-14T03:23:50.936Z,5.82
2023-03-14T03:26:18.010Z,5.28
2023-03-14T03:28:45.077Z,8.80
2023-03-14T03:31:14.322Z,8.25
2023-03-14T03:33:41.358Z,5.93
2023-03-14T03:36:11.430Z,5.63
2023-03-14T03:38:40.072Z,7.63
2023-03-14T03:41:08.204Z,4.70
2023-03-14T03:43:36.723Z,7.15
2023-03-14T03:46:06.864Z,7.00
2023-03-14T03:48:36.207Z,6.13
2023-03-14T03:51:06.302Z,10.10
2023-03-14T03:53:35.667Z,8.80
2023-03-14T03:56:09.330Z,5.10
2023-03-14T03:58:36.584Z,5.18
2023-03-14T04:01:03.880Z,4.75
2023-03-14T04:03:31.141Z,7.22
2023-03-14T04:06:03.163Z,5.15
2023-03-14T04:08:35.554Z,9.05
2023-03-14T04:11:03.820Z,4.43
2023-03-14T04:13:46.150Z,5.32
2023-03-14T04:16:18.209Z,7.15
2023-03-14T04:21:12.414Z,5.25
2023-03-14T04:23:47.132Z,5.95
2023-03-14T04:26:15.292Z,9.82
2023-03-14T04:28:42.478Z,4.53
2023-03-14T04:31:13.897Z,3.75
2023-03-14T04:33:44.135Z,4.78
2023-03-14T04:36:13.327Z,2.83
2023-03-14T04:38:40.724Z,5.38
2023-03-14T04:41:10.034Z,5.13
2023-03-14T04:43:37.134Z,8.48
2023-03-14T04:46:07.731Z,5.95
2023-03-14T04:48:35.264Z,5.53
2023-03-14T04:51:02.517Z,3.70
2023-03-14T04:53:33.250Z,5.03
2023-03-14T04:56:02.922Z,5.03
2023-03-14T04:58:37.821Z,2.47
2023-03-14T05:01:07.475Z,3.80
2023-03-14T05:03:40.877Z,3.15
2023-03-14T05:06:15.254Z,3.58
2023-03-14T05:09:20.878Z,2.00
2023-03-14T05:12:02.057Z,1.80
2023-03-14T05:14:52.992Z,2.33
2023-03-14T05:17:40.166Z,3.22
2023-03-14T05:20:33.821Z,1.85
2023-03-14T05:23:21.377Z,1.75
2023-03-14T05:26:03.166Z,0.93
2023-03-14T05:28:56.988Z,1.75
2023-03-14T05:31:46.745Z,1.85
2023-03-14T05:34:35.509Z,3.00
2023-03-14T05:37:21.316Z,1.35
2023-03-14T05:42:47.971Z,1.50
2023-03-14T05:45:43.975Z,1.98
2023-03-14T05:48:25.648Z,2.63
2023-03-14T05:51:10.295Z,1.83
2023-03-14T05:54:06.319Z,2.20
2023-03-14T05:56:51.773Z,1.83
2023-03-14T05:59:33.269Z,2.60
2023-03-14T06:02:22.242Z,3.47
2023-03-14T06:04:59.931Z,2.30
2023-03-14T06:07:26.909Z,2.92
2023-03-14T06:09:53.881Z,2.15
2023-03-14T06:12:22.075Z,2.15
2023-03-14T06:14:49.092Z,3.03
2023-03-14T06:17:16.600Z,2.00
2023-03-14T06:19:52.638Z,2.60
2023-03-14T06:22:20.990Z,2.55
2023-03-14T06:24:48.180Z,3.15
2023-03-14T06:27:17.126Z,6.15
2023-03-14T06:29:44.327Z,4.53
2023-03-14T06:32:11.194Z,3.55
2023-03-14T06:34:39.155Z,5.38
2023-03-14T06:37:06.518Z,5.38
2023-03-14T06:39:34.909Z,3.35
2023-03-14T06:45:24.790Z,4.55
2023-03-14T06:47:53.048Z,2.65
2023-03-14T06:50:25.487Z,5.10
2023-03-14T06:52:53.270Z,3.60
2023-03-14T06:55:25.428Z,3.28
2023-03-14T06:57:53.699Z,3.13
2023-03-14T07:00:21.936Z,1.95
2023-03-14T07:02:51.274Z,3.63
2023-03-14T07:05:30.924Z,3.40
2023-03-14T07:07:58.178Z,9.10
2023-03-14T07:10:26.811Z,4.60
2023-03-14T07:12:54.138Z,3.47
2023-03-14T07:15:23.659Z,2.92
2023-03-14T07:17:56.314Z,3.85
2023-03-14T07:20:24.288Z,3.38
2023-03-14T07:22:52.188Z,6.72
2023-03-14T07:25:28.814Z,8.40
2023-03-14T07:27:55.719Z,7.15
2023-03-14T07:30:22.909Z,5.68
2023-03-14T07:32:50.581Z,6.03
2023-03-14T07:35:18.266Z,4.88
2023-03-14T07:37:45.359Z,3.00
2023-03-14T07:40:14.037Z,5.00
2023-03-14T07:42:42.692Z,6.78
2023-03-14T07:45:42.555Z,6.15
2023-03-14T07:48:10.100Z,4.28
2023-03-14T07:50:37.142Z,5.18
2023-03-14T07:53:04.024Z,4.75
2023-03-14T07:55:31.059Z,3.78
2023-03-14T07:57:59.326Z,5.82
2023-03-14T08:00:26.869Z,3.35
2023-03-14T08:02:53.858Z,5.18
2023-03-14T08:05:23.916Z,4.18
2023-03-14T08:07:50.838Z,3.80
2023-03-14T08:10:18.136Z,6.07
2023-03-14T08:12:44.957Z,6.22
2023-03-14T08:15:13.362Z,3.00
2023-03-14T08:17:40.295Z,5.57
2023-03-14T08:20:08.324Z,2.95
2023-03-14T08:22:35.354Z,4.15
2023-03-14T08:25:02.377Z,4.60
2023-03-14T08:27:29.291Z,3.08
2023-03-14T08:29:56.387Z,2.55
2023-03-14T08:32:24.639Z,3.92
2023-03-14T08:34:51.624Z,3.42
2023-03-14T08:37:26.245Z,6.07
2023-03-14T08:39:54.529Z,3.78
2023-03-14T08:42:21.692Z,4.30
2023-03-14T08:44:48.818Z,4.45
2023-03-14T08:47:15.784Z,4.10
2023-03-14T08:49:44.087Z,4.88
2023-03-14T08:52:11.100Z,6.75
2023-03-14T08:54:38.046Z,5.78
2023-03-14T08:57:04.856Z,4.45
2023-03-14T08:59:31.759Z,3.53
2023-03-14T09:01:58.648Z,4.05
2023-03-14T09:04:26.035Z,4.60
2023-03-14T09:06:54.459Z,4.68
2023-03-14T09:09:21.477Z,3.85
2023-03-14T09:11:48.304Z,5.45
2023-03-14T09:14:15.159Z,4.05
2023-03-14T09:16:42.094Z,4.72
2023-03-14T09:19:09.112Z,4.00
2023-03-14T09:21:36.171Z,5.22
2023-03-14T09:24:05.442Z,2.95
2023-03-14T09:26:32.531Z,5.88
2023-03-14T09:28:59.347Z,3.60
2023-03-14T09:31:26.454Z,3.83
2023-03-14T09:33:53.451Z,4.22
2023-03-14T09:36:20.593Z,3.67
2023-03-14T09:38:48.152Z,3.28
2023-03-14T09:41:22.466Z,2.13
2023-03-14T09:43:58.114Z,3.25
2023-03-14T09:46:25.321Z,3.47
2023-03-14T09:48:53.057Z,3.47
2023-03-14T09:51:21.716Z,2.60
2023-03-14T09:53:51.946Z,1.65
2023-03-14T09:56:24.028Z,1.60
2023-03-14T09:58:55.974Z,1.08
2023-03-14T10:01:29.381Z,0.85
2023-03-14T10:04:01.728Z,1.05
2023-03-14T10:06:31.605Z,1.17
2023-03-14T10:08:59.033Z,0.30
2023-03-14T10:11:27.417Z,0.35
2023-03-14T10:14:07.882Z,0.30
2023-03-14T10:16:38.440Z,0.10
2023-03-14T10:19:08.616Z,0.65
2023-03-14T10:21:41.313Z,0.30
2023-03-14T10:24:25.057Z,0.75
2023-03-14T10:26:56.478Z,0.65
2023-03-14T10:29:23.621Z,0.60
2023-03-14T10:31:56.405Z,0.50
2023-03-14T10:34:26.696Z,0.20
2023-03-14T10:36:56.932Z,0.20
2023-03-14T10:39:38.491Z,1.00
2023-03-14T10:42:17.921Z,0.50
2023-03-14T10:44:46.810Z,0.60
2023-03-14T10:47:22.828Z,2.15
2023-03-14T10:49:50.810Z,1.13
2023-03-14T10:52:30.900Z,1.23
2023-03-14T10:55:11.091Z,0.60
2023-03-14T10:57:41.938Z,0.57
2023-03-14T11:00:17.108Z,0.80
2023-03-14T11:03:09.744Z,0.30
2023-03-14T11:05:46.603Z,2.22
2023-03-14T11:08:23.470Z,4.65
2023-03-14T11:10:55.678Z,4.90
2023-03-14T11:16:09.810Z,3.95
2023-03-14T11:19:15.704Z,6.35
2023-03-14T11:21:50.998Z,3.38
2023-03-14T11:24:37.687Z,3.08
2023-03-14T11:27:16.835Z,2.35
2023-03-14T11:29:56.454Z,2.92
2023-03-14T11:32:40.257Z,2.28
2023-03-14T11:35:23.478Z,0.85
2023-03-14T11:37:57.834Z,1.42
2023-03-14T11:40:28.508Z,2.10
2023-03-14T11:43:09.642Z,1.27
2023-03-14T11:45:42.084Z,1.98
2023-03-14T11:48:21.753Z,2.22
2023-03-14T11:50:53.945Z,2.88
2023-03-14T11:53:26.697Z,3.03
2023-03-14T11:55:54.251Z,3.13
2023-03-14T11:58:27.124Z,1.33
2023-03-14T12:00:58.488Z,1.85
2023-03-14T12:03:33.810Z,1.23
2023-03-14T12:06:14.717Z,3.00
2023-03-14T12:08:51.355Z,3.00
2023-03-14T12:11:33.191Z,3.38
2023-03-14T12:14:02.294Z,3.35
2023-03-14T12:16:41.078Z,1.75
2023-03-14T12:19:34.352Z,3.70
2023-03-14T12:22:25.922Z,4.28
2023-03-14T12:25:01.189Z,4.63
2023-03-14T12:28:17.037Z,3.78
2023-03-14T12:30:44.064Z,3.00
2023-03-14T12:33:36.227Z,3.08
2023-03-14T12:36:55.094Z,7.97
2023-03-14T12:39:36.583Z,2.92
2023-03-14T12:42:13.520Z,3.53
2023-03-14T12:44:48.656Z,6.93
2023-03-14T12:47:53.050Z,8.18
2023-03-14T12:50:29.886Z,3.50
2023-03-14T12:53:44.980Z,4.72
2023-03-14T12:56:29.090Z,2.45
2023-03-14T12:59:28.810Z,3.50
2023-03-14T13:02:00.907Z,3.78
2023-03-14T13:04:39.575Z,4.47
2023-03-14T13:07:13.936Z,4.15
2023-03-14T13:10:03.648Z,6.18
2023-03-14T13:12:39.511Z,6.55
2023-03-14T13:15:26.693Z,7.88
2023-03-14T13:18:00.687Z,6.85
2023-03-14T13:20:36.381Z,7.68
2023-03-14T13:23:05.190Z,5.25
2023-03-14T13:25:35.595Z,6.95
2023-03-14T13:28:04.872Z,4.30
2023-03-14T13:30:41.621Z,5.72
2023-03-14T13:33:15.874Z,4.22
2023-03-14T13:35:45.722Z,5.97
2023-03-14T13:38:23.691Z,6.38
2023-03-14T13:40:54.557Z,3.90
2023-03-14T13:43:29.581Z,6.03
2023-03-14T13:46:03.733Z,6.75
2023-03-14T13:48:34.356Z,5.93
2023-03-14T13:51:06.381Z,4.57
2023-03-14T13:56:13.048Z,6.93
2023-03-14T13:58:41.634Z,7.55
2023-03-14T14:01:16.449Z,4.82
2023-03-14T14:03:46.460Z,4.50
2023-03-14T14:06:27.320Z,4.75
2023-03-14T14:09:00.039Z,3.80
2023-03-14T14:11:48.908Z,3.42
2023-03-14T14:14:26.309Z,7.38
2023-03-14T14:16:54.459Z,8.13
2023-03-14T14:19:24.288Z,7.75
2023-03-14T14:21:51.962Z,1.67
2023-03-14T14:24:25.614Z,6.57
2023-03-14T14:26:54.510Z,3.92
2023-03-14T14:29:29.165Z,6.60
2023-03-14T14:32:10.395Z,4.80
2023-03-14T14:34:43.050Z,3.50
2023-03-14T14:37:22.753Z,5.05
2023-03-14T14:39:53.479Z,4.13
2023-03-14T14:42:25.476Z,4.05
2023-03-14T14:45:20.684Z,3.38
2023-03-14T14:47:53.163Z,2.70
2023-03-14T14:50:30.721Z,3.42
2023-03-14T14:52:59.478Z,3.80
2023-03-14T14:55:34.816Z,2.25
2023-03-14T14:58:22.394Z,3.00
2023-03-14T15:00:57.390Z,3.00
2023-03-14T15:03:29.373Z,2.33
2023-03-14T15:05:56.380Z,5.63
2023-03-14T15:08:25.526Z,2.88
2023-03-14T15:10:54.346Z,3.60
2023-03-14T15:13:21.566Z,3.53
2023-03-14T15:15:50.165Z,4.07
2023-03-14T15:18:19.722Z,7.97
2023-03-14T15:20:47.026Z,2.10
2023-03-14T15:23:17.030Z,7.10
2023-03-14T15:25:55.148Z,4.70
2023-03-14T15:28:27.630Z,4.45
2023-03-14T15:30:57.794Z,3.97
2023-03-14T15:33:26.367Z,5.75
2023-03-14T15:35:53.710Z,4.40
2023-03-14T15:38:23.074Z,2.97
2023-03-14T15:40:52.939Z,3.53
2023-03-14T15:43:24.096Z,4.00
2023-03-14T15:45:52.496Z,4.20
2023-03-14T15:48:21.831Z,5.55
2023-03-14T15:50:48.739Z,2.80
2023-03-14T15:53:16.054Z,7.80
2023-03-14T15:55:42.861Z,4.50
2023-03-14T15:58:21.259Z,3.00
2023-03-14T16:00:49.640Z,2.90
2023-03-14T16:03:18.049Z,6.22
2023-03-14T16:05:45.373Z,4.53
2023-03-14T16:08:12.283Z,6.90
2023-03-14T16:10:39.149Z,5.80
2023-03-14T16:13:06.148Z,6.43
2023-03-14T16:15:33.010Z,7.72
2023-03-14T16:18:02.437Z,4.30
2023-03-14T16:20:47.181Z,6.57
2023-03-14T16:23:14.737Z,6.65
2023-03-14T16:25:41.661Z,8.88
2023-03-14T16:28:11.328Z,2.83
2023-03-14T16:30:38.634Z,9.38
2023-03-14T16:33:10.112Z,7.53
2023-03-14T16:35:41.420Z,5.15
2023-03-14T16:38:09.597Z,3.63
2023-03-14T16:40:36.713Z,7.88
2023-03-14T16:43:16.729Z,5.53
2023-03-14T16:45:43.568Z,4.70
2023-03-14T16:48:10.570Z,5.25
2023-03-14T16:50:40.985Z,7.63
2023-03-14T16:55:55.213Z,2.72
2023-03-14T16:58:22.778Z,3.15
2023-03-14T17:00:50.092Z,5.80
2023-03-14T17:03:18.252Z,5.07
2023-03-14T17:05:48.566Z,5.40
2023-03-14T17:08:16.179Z,3.38
2023-03-14T17:10:43.374Z,3.95
2023-03-14T17:13:10.575Z,5.00
2023-03-14T17:15:37.655Z,4.88
2023-03-14T17:18:06.160Z,4.70
2023-03-14T17:20:34.004Z,5.00
2023-03-14T17:23:02.196Z,9.38
2023-03-14T17:25:30.183Z,10.30
2023-03-14T17:27:57.267Z,9.18
2023-03-14T17:30:24.414Z,6.82
2023-03-14T17:32:51.573Z,6.13
2023-03-14T17:35:18.632Z,6.35
2023-03-14T17:37:46.198Z,10.85
2023-03-14T17:40:14.899Z,8.10
2023-03-14T17:42:47.314Z,5.60
2023-03-14T17:45:14.364Z,4.35
2023-03-14T17:47:41.538Z,4.22
2023-03-14T17:50:10.561Z,10.30
2023-03-14T17:52:37.526Z,3.25
2023-03-14T17:55:07.365Z,3.45
2023-03-14T17:57:37.103Z,7.75
2023-03-14T18:00:05.475Z,2.58
2023-03-14T18:02:34.911Z,4.47
2023-03-14T18:05:01.897Z,7.68
2023-03-14T18:07:29.170Z,9.65
2023-03-14T18:09:56.442Z,7.72
2023-03-14T18:12:23.340Z,6.75
2023-03-14T18:14:51.915Z,4.63
2023-03-14T18:17:18.854Z,5.07
2023-03-14T18:19:45.730Z,3.83
2023-03-14T18:22:12.730Z,4.53
2023-03-14T18:24:39.703Z,4.10
2023-03-14T18:27:07.318Z,7.80
2023-03-14T18:29:34.232Z,8.02
2023-03-14T18:32:02.638Z,10.15
2023-03-14T18:34:29.610Z,7.93
2023-03-14T18:36:56.621Z,8.20
2023-03-14T18:39:23.748Z,7.30
2023-03-14T18:41:50.893Z,6.90
2023-03-14T18:44:18.181Z,6.53
2023-03-14T18:46:46.972Z,3.45
2023-03-14T18:49:15.531Z,6.93
2023-03-14T18:51:42.596Z,3.53
2023-03-14T18:54:10.995Z,6.55
2023-03-14T18:56:39.247Z,2.53
2023-03-14T18:59:06.792Z,3.50
2023-03-14T19:01:34.844Z,7.20
2023-03-14T19:04:03.458Z,4.50
2023-03-14T19:06:32.804Z,5.28
2023-03-14T19:09:00.498Z,4.80
2023-03-14T19:11:28.022Z,6.43
2023-03-14T19:13:55.669Z,3.35
2023-03-14T19:16:23.068Z,3.35
2023-03-14T19:18:50.226Z,3.20
2023-03-14T19:21:27.985Z,1.80
2023-03-14T19:23:56.795Z,5.43
2023-03-14T19:26:24.345Z,4.38
2023-03-14T19:28:51.909Z,2.90
2023-03-14T19:31:19.379Z,3.53
2023-03-14T19:33:46.632Z,11.90
2023-03-14T19:36:23.161Z,9.63
2023-03-14T19:38:52.070Z,2.88
2023-03-14T19:41:22.670Z,5.88
2023-03-14T19:43:51.044Z,2.15
2023-03-14T19:46:18.385Z,3.58
2023-03-14T19:52:01.636Z,4.18
2023-03-14T19:54:28.673Z,4.38
2023-03-14T19:56:57.049Z,6.07
2023-03-14T19:59:23.996Z,3.53
2023-03-14T20:01:50.885Z,4.20
2023-03-14T20:04:17.918Z,2.20
2023-03-14T20:06:44.986Z,3.47
2023-03-14T20:09:11.942Z,4.80
2023-03-14T20:11:38.871Z,2.22
2023-03-14T20:14:07.670Z,4.25
2023-03-14T20:16:34.833Z,7.45
2023-03-14T20:19:04.538Z,7.88
2023-03-14T20:21:31.425Z,5.63
2023-03-14T20:23:58.647Z,4.68
2023-03-14T20:26:26.028Z,4.03
2023-03-14T20:28:53.124Z,4.13
2023-03-14T20:31:22.393Z,5.57
2023-03-14T20:33:51.417Z,3.60
2023-03-14T20:36:19.142Z,0.93
2023-03-14T20:38:46.123Z,3.97
2023-03-14T20:41:13.246Z,2.97
2023-03-14T20:43:40.125Z,3.97
2023-03-14T20:46:08.353Z,2.95
2023-03-14T20:48:37.001Z,3.80
2023-03-14T20:51:04.276Z,2.97
2023-03-14T20:53:31.522Z,5.00
2023-03-14T20:55:58.551Z,3.30
2023-03-14T20:58:26.826Z,3.58
2023-03-14T21:00:56.816Z,2.15
2023-03-14T21:03:25.511Z,5.97
2023-03-14T21:05:54.169Z,2.78
2023-03-14T21:08:23.944Z,4.65
2023-03-14T21:10:53.330Z,4.22
2023-03-14T21:13:20.917Z,3.78
2023-03-14T21:15:47.963Z,4.47
2023-03-14T21:18:15.034Z,2.60
2023-03-14T21:20:43.217Z,2.22
2023-03-14T21:23:12.144Z,2.33
2023-03-14T21:25:41.862Z,3.63
2023-03-14T21:28:10.080Z,2.13
2023-03-14T21:30:37.319Z,1.35
2023-03-14T21:33:04.602Z,0.50
2023-03-14T21:35:31.520Z,1.70
2023-03-14T21:37:58.655Z,4.38
2023-03-14T21:40:26.965Z,0.68
2023-03-14T21:42:54.294Z,1.88
2023-03-14T21:45:25.679Z,2.20
2023-03-14T21:47:52.746Z,3.20
2023-03-14T21:50:20.266Z,3.50
2023-03-14T21:52:47.198Z,2.15
2023-03-14T21:55:14.461Z,1.52
2023-03-14T21:57:43.277Z,1.77
2023-03-14T22:00:12.260Z,1.15
2023-03-14T22:02:40.634Z,1.45
2023-03-14T22:05:10.656Z,3.53
2023-03-14T22:07:37.950Z,2.63
2023-03-14T22:10:05.761Z,2.17
2023-03-14T22:12:32.594Z,2.67
2023-03-14T22:15:00.984Z,4.57
2023-03-14T22:17:28.002Z,1.27
2023-03-14T22:19:54.983Z,2.50
2023-03-14T22:22:21.858Z,0.90
2023-03-14T22:24:49.124Z,4.53
2023-03-14T22:27:16.156Z,2.25
2023-03-14T22:29:43.355Z,1.25
2023-03-14T22:32:12.606Z,0.90
2023-03-14T22:34:39.518Z,2.42
2023-03-14T22:37:07.612Z,1.40
2023-03-14T22:39:35.244Z,1.45
2023-03-14T22:42:02.176Z,3.00
2023-03-14T22:44:54.305Z,0.67
2023-03-14T22:47:22.906Z,1.58
2023-03-14T22:49:49.854Z,2.55
2023-03-14T22:52:16.893Z,2.03
2023-03-14T22:54:44.207Z,0.77
2023-03-14T22:57:11.479Z,3.53
2023-03-14T22:59:38.454Z,1.15
2023-03-14T23:02:05.800Z,2.55
2023-03-14T23:04:34.298Z,3.28
2023-03-14T23:07:01.544Z,1.63
2023-03-14T23:09:28.455Z,3.25
2023-03-14T23:11:55.369Z,0.93
2023-03-14T23:14:22.544Z,2.25
2023-03-14T23:16:49.862Z,1.08
2023-03-14T23:19:17.031Z,2.58
2023-03-14T23:21:45.438Z,2.85
2023-03-14T23:24:12.242Z,4.93
2023-03-14T23:26:39.098Z,2.72
2023-03-14T23:29:06.335Z,2.05
2023-03-14T23:31:33.817Z,2.90
2023-03-14T23:34:00.987Z,1.95
2023-03-14T23:36:28.112Z,1.55
2023-03-14T23:38:56.799Z,1.85
2023-03-14T23:41:23.927Z,1.70
2023-03-14T23:43:50.806Z,3.20
2023-03-14T23:46:17.871Z,0.60
2023-03-14T23:48:44.820Z,2.28
2023-03-14T23:51:12.404Z,0.93
2023-03-14T23:53:40.130Z,3.35
2023-03-14T23:56:10.909Z,1.52
2023-03-14T23:58:37.900Z,1.45
